Time;durP1;ratioP1;P1;durP2;ratioP2;P2;SDS_P1;SDS_P2;PMS_P1;PMS_P2;Temp;Humidity;BMP_temperature;BMP_pressure;BME280_temperature;BME280_humidity;BME280_pressure;Samples;Min_cycle;Max_cycle;Signal;HPM_P1;HPM_P2
2021/09/23 00:00:47;;;;;;;18.15;7.38;;;;;;;8.31;93.19;96980.00;5061540;28;20253;-79
2021/09/23 00:03:20;;;;;;;13.88;6.80;;;;;;;8.27;93.28;96984.84;5077498;28;20064;-80
2021/09/23 00:05:46;;;;;;;14.20;6.95;;;;;;;8.20;93.64;96988.47;5077127;28;20041;-80
2021/09/23 00:08:13;;;;;;;18.67;7.40;;;;;;;8.18;93.87;96993.09;5058374;28;20043;-78
2021/09/23 00:10:41;;;;;;;14.13;6.85;;;;;;;8.15;93.29;96982.00;5077365;28;20059;-79
2021/09/23 00:13:08;;;;;;;17.10;7.40;;;;;;;8.06;93.35;96980.59;5075895;28;20116;-77
2021/09/23 00:15:35;;;;;;;14.52;7.43;;;;;;;8.09;93.37;96969.72;5057817;28;20052;-79
2021/09/23 00:18:04;;;;;;;13.32;6.45;;;;;;;8.04;93.45;96977.38;5085597;28;20070;-76
2021/09/23 00:20:32;;;;;;;14.98;6.03;;;;;;;7.99;93.12;96977.16;5062535;28;20135;-77
2021/09/23 00:22:58;;;;;;;15.93;7.05;;;;;;;7.90;93.77;96967.88;5078971;28;20056;-78
2021/09/23 00:25:26;;;;;;;16.52;6.65;;;;;;;7.90;94.08;96965.25;5058354;28;20045;-76
2021/09/23 00:27:52;;;;;;;15.70;6.88;;;;;;;7.86;94.11;96959.63;5078058;28;20043;-80
2021/09/23 00:30:18;;;;;;;15.55;6.70;;;;;;;7.88;94.00;96964.66;5087379;28;20029;-77
2021/09/23 00:32:46;;;;;;;13.15;6.28;;;;;;;7.87;94.29;96963.84;5078187;28;20063;-76
2021/09/23 00:35:11;;;;;;;;;;;;;;;7.85;94.24;96963.22;5078584;28;20028;-76
2021/09/23 00:37:37;;;;;;;16.80;6.93;;;;;;;7.91;94.14;96966.91;5084880;28;19920;-77
2021/09/23 00:40:07;;;;;;;15.20;6.63;;;;;;;7.93;93.92;96964.88;5062699;28;20064;-79
2021/09/23 00:42:35;;;;;;;15.45;6.95;;;;;;;7.94;93.71;96958.63;5060499;28;20055;-78
2021/09/23 00:45:03;;;;;;;14.70;7.35;;;;;;;7.89;93.80;96953.16;5078205;28;20079;-78
2021/09/23 00:47:32;;;;;;;16.23;7.10;;;;;;;7.88;94.68;96949.75;5057929;28;20044;-76
2021/09/23 00:49:57;;;;;;;14.07;6.95;;;;;;;7.83;94.18;96946.13;5074350;28;20048;-77
2021/09/23 00:52:27;;;;;;;12.98;6.50;;;;;;;7.86;93.95;96935.25;5076277;28;20169;-79
2021/09/23 00:54:54;;;;;;;17.30;6.97;;;;;;;7.82;94.07;96929.59;5076332;28;20037;-79
2021/09/23 00:57:21;;;;;;;13.00;6.25;;;;;;;7.78;93.82;96928.38;5095913;22;20044;-80
2021/09/23 00:59:51;;;;;;;13.65;6.55;;;;;;;7.72;94.27;96933.63;5059916;28;20044;-79
2021/09/23 01:02:17;;;;;;;15.20;6.95;;;;;;;7.65;94.22;96930.19;5058172;28;20041;-78
2021/09/23 01:04:44;;;;;;;17.48;7.30;;;;;;;7.70;94.36;96925.16;5073325;28;20132;-77
2021/09/23 01:07:10;;;;;;;16.85;7.55;;;;;;;7.67;94.02;96926.34;5083501;28;20532;-78
2021/09/23 01:09:37;;;;;;;15.10;6.85;;;;;;;7.59;94.10;96922.13;5087757;28;20040;-79
2021/09/23 01:12:03;;;;;;;17.37;8.10;;;;;;;7.55;93.79;96925.34;5077031;28;20044;-78
2021/09/23 01:14:31;;;;;;;16.48;7.10;;;;;;;7.50;94.15;96920.69;5080235;28;20455;-79
2021/09/23 01:16:58;;;;;;;17.92;7.82;;;;;;;7.36;94.19;96913.81;5074229;28;20037;-79
2021/09/23 01:19:26;;;;;;;18.17;7.75;;;;;;;7.33;95.62;96914.22;5075383;28;20124;-80
2021/09/23 01:21:56;;;;;;;;;;;;;;;7.39;94.89;96918.66;5077828;28;20068;-79
2021/09/23 01:24:22;;;;;;;16.65;7.28;;;;;;;7.44;94.01;96916.25;5074540;28;20011;-80
2021/09/23 01:26:48;;;;;;;17.95;7.22;;;;;;;7.36;94.22;96926.88;5074164;28;20152;-79
2021/09/23 01:29:14;;;;;;;19.10;7.60;;;;;;;7.32;94.18;96921.25;5075101;28;20036;-79
2021/09/23 01:31:40;;;;;;;16.30;7.22;;;;;;;7.26;94.34;96913.38;5074231;28;20037;-79
2021/09/23 01:34:07;;;;;;;17.75;7.35;;;;;;;7.31;93.80;96914.38;5077896;28;20092;-79
2021/09/23 01:36:35;;;;;;;14.43;6.78;;;;;;;7.30;93.89;96918.00;5094051;28;20066;-79
2021/09/23 01:39:05;;;;;;;20.30;7.28;;;;;;;7.22;94.27;96901.72;5058492;28;20063;-80
2021/09/23 01:41:32;;;;;;;19.58;6.65;;;;;;;7.24;94.24;96912.78;5073654;28;20036;-79
2021/09/23 01:43:58;;;;;;;17.90;7.65;;;;;;;7.14;94.80;96920.19;5076254;28;20045;-80
2021/09/23 01:46:24;;;;;;;16.80;7.40;;;;;;;7.23;94.95;96913.78;5073228;28;20041;-78
2021/09/23 01:48:49;;;;;;;16.30;7.32;;;;;;;7.33;94.15;96907.16;5072715;28;20037;-78
2021/09/23 01:51:15;;;;;;;19.63;7.20;;;;;;;7.34;93.91;96902.75;5075121;28;20044;-80
2021/09/23 01:53:41;;;;;;;19.67;7.82;;;;;;;7.27;94.07;96900.13;5075285;28;20446;-78
2021/09/23 01:56:10;;;;;;;16.15;6.95;;;;;;;7.29;94.03;96899.91;5076830;28;20416;-80
2021/09/23 01:58:36;;;;;;;19.13;8.40;;;;;;;7.26;93.97;96895.06;5060002;28;20045;-81
2021/09/23 02:01:04;;;;;;;20.00;8.77;;;;;;;7.29;94.02;96890.25;5077569;28;20102;-81
2021/09/23 02:03:33;;;;;;;22.25;9.48;;;;;;;7.26;93.98;96893.25;5070400;28;20052;-81
2021/09/23 02:05:58;;;;;;;;;;;;;;;7.18;94.24;96890.81;5085746;28;20041;-81
2021/09/23 02:08:24;;;;;;;19.05;8.45;;;;;;;7.19;94.34;96886.38;5078386;28;19978;-81
2021/09/23 02:10:49;;;;;;;24.35;8.80;;;;;;;7.17;94.01;96888.41;5080520;28;20113;-81
2021/09/23 02:13:16;;;;;;;20.95;8.82;;;;;;;7.02;93.70;96886.75;5082738;28;20496;-80
2021/09/23 02:15:42;;;;;;;19.25;8.82;;;;;;;6.95;94.73;96895.59;5063433;28;20044;-81
2021/09/23 02:18:07;;;;;;;19.88;9.25;;;;;;;7.05;94.59;96891.59;5078851;28;20045;-81
2021/09/23 02:20:33;;;;;;;20.58;9.45;;;;;;;7.06;94.36;96889.78;5076953;28;20508;-81
2021/09/23 02:22:58;;;;;;;22.00;10.38;;;;;;;6.99;94.38;96887.13;5083165;28;20048;-80
2021/09/23 02:25:24;;;;;;;19.30;9.95;;;;;;;7.01;94.16;96887.75;5084650;28;20060;-82
2021/09/23 02:27:49;;;;;;;21.48;9.63;;;;;;;6.98;94.11;96887.31;5064578;28;20511;-81
2021/09/23 02:30:16;;;;;;;21.60;9.57;;;;;;;6.97;94.31;96878.69;5080739;28;20087;-81
2021/09/23 02:32:42;;;;;;;18.63;9.27;;;;;;;6.92;94.07;96885.50;5079306;28;20048;-81
2021/09/23 02:35:09;;;;;;;20.27;10.30;;;;;;;6.89;94.89;96881.47;5083740;28;20044;-79
2021/09/23 02:37:35;;;;;;;22.63;10.27;;;;;;;6.87;94.53;96880.84;5084081;28;20048;-81
2021/09/23 02:40:00;;;;;;;22.92;10.73;;;;;;;6.90;95.01;96880.47;5063775;28;20044;-81
2021/09/23 02:42:28;;;;;;;23.15;11.55;;;;;;;6.86;94.55;96878.44;5077965;28;20095;-80
2021/09/23 02:44:54;;;;;;;20.08;11.25;;;;;;;6.85;94.37;96885.47;5077726;28;20067;-80
2021/09/23 02:47:23;;;;;;;23.15;11.60;;;;;;;6.74;94.83;96873.78;5058571;28;20114;-82
2021/09/23 02:49:50;;;;;;;22.65;11.70;;;;;;;6.72;95.14;96880.19;5081529;28;20104;-79
2021/09/23 02:52:17;;;;;;;22.52;12.85;;;;;;;6.79;95.03;96876.59;5090828;28;20035;-80
2021/09/23 02:54:45;;;;;;;24.67;12.83;;;;;;;6.78;94.27;96877.63;5078919;28;20055;-78
2021/09/23 02:57:11;;;;;;;23.75;12.98;;;;;;;6.71;94.89;96868.91;5096757;28;20354;-80
2021/09/23 02:59:39;;;;;;;26.58;14.70;;;;;;;6.78;94.46;96871.56;5056637;28;20044;-76
2021/09/23 03:02:05;;;;;;;;;;;;;;;6.75;94.22;96866.72;5034542;28;20537;-78
2021/09/23 03:04:32;;;;;;;25.13;13.77;;;;;;;6.64;94.67;96867.28;5053560;28;19921;-76
2021/09/23 03:06:57;;;;;;;28.70;15.73;;;;;;;6.61;95.00;96857.22;5034283;28;20041;-76
2021/09/23 03:09:25;;;;;;;27.85;14.93;;;;;;;6.59;95.25;96860.03;5052312;28;20060;-75
2021/09/23 03:11:51;;;;;;;28.45;15.32;;;;;;;6.55;95.57;96854.38;5034422;28;20041;-76
2021/09/23 03:14:19;;;;;;;26.75;14.48;;;;;;;6.48;94.85;96852.75;5035143;28;20051;-78
2021/09/23 03:16:44;;;;;;;;;;;;;;;6.44;95.45;96851.50;5051859;28;20037;-77
2021/09/23 03:19:10;;;;;;;26.55;14.98;;;;;;;6.38;95.99;96841.81;5037869;28;20474;-78
2021/09/23 03:21:40;;;;;;;28.60;16.17;;;;;;;6.32;96.11;96843.41;5054830;28;20119;-76
2021/09/23 03:24:05;;;;;;;30.40;17.83;;;;;;;6.32;96.30;96838.19;5070251;28;20048;-76
2021/09/23 03:26:31;;;;;;;26.58;16.10;;;;;;;6.39;95.97;96831.19;5069359;28;20045;-78
2021/09/23 03:28:59;;;;;;;26.83;16.65;;;;;;;6.37;95.97;96824.53;5055305;28;20055;-77
2021/09/23 03:31:25;;;;;;;28.30;17.33;;;;;;;6.26;96.38;96823.28;5035696;28;20045;-76
2021/09/23 03:33:53;;;;;;;30.58;18.17;;;;;;;6.28;96.53;96824.69;5053192;28;20098;-78
2021/09/23 03:36:22;;;;;;;30.30;17.33;;;;;;;6.27;95.89;96824.88;5036521;28;20049;-79
2021/09/23 03:38:51;;;;;;;28.95;18.77;;;;;;;6.17;95.95;96814.78;5054154;28;20060;-79
2021/09/23 03:41:16;;;;;;;29.45;17.23;;;;;;;6.10;96.43;96815.75;5035127;28;20052;-79
2021/09/23 03:43:42;;;;;;;31.55;18.30;;;;;;;6.08;97.07;96813.34;5055648;28;20045;-79
2021/09/23 03:46:07;;;;;;;30.98;18.33;;;;;;;6.27;96.95;96817.06;5064731;28;20060;-78
2021/09/23 03:48:33;;;;;;;30.73;18.33;;;;;;;6.39;96.42;96818.09;5070916;28;20041;-79
2021/09/23 03:51:01;;;;;;;28.77;17.98;;;;;;;6.39;95.93;96815.50;5054971;28;20112;-79
2021/09/23 03:53:27;;;;;;;;;;;;;;;6.39;94.96;96818.09;5055895;28;20067;-79
2021/09/23 03:55:53;;;;;;;26.92;17.13;;;;;;;6.35;95.15;96819.53;5054852;28;20380;-79
2021/09/23 03:58:19;;;;;;;27.95;16.70;;;;;;;6.37;95.42;96809.66;5053372;28;20463;-78
2021/09/23 04:00:45;;;;;;;30.10;17.45;;;;;;;6.38;95.14;96807.84;5052553;28;20508;-78
2021/09/23 04:03:13;;;;;;;31.10;19.65;;;;;;;6.45;95.11;96799.03;5050792;28;20073;-78
2021/09/23 04:05:41;;;;;;;32.08;17.23;;;;;;;6.36;95.11;96787.16;5033984;28;20037;-77
2021/09/23 04:08:08;;;;;;;;;;;;;;;6.25;94.68;96790.31;5034327;28;20418;-77
2021/09/23 04:10:36;;;;;;;28.70;16.67;;;;;;;6.26;94.47;96790.13;5051725;28;20011;-77
2021/09/23 04:13:04;;;;;;;28.42;16.15;;;;;;;6.17;95.34;96793.09;5052088;28;20064;-77
2021/09/23 04:15:29;;;;;;;30.45;16.35;;;;;;;6.25;95.46;96793.75;5050749;28;20136;-79
2021/09/23 04:17:57;;;;;;;25.63;15.82;;;;;;;6.13;95.59;96786.63;5053034;28;20072;-77
2021/09/23 04:20:23;;;;;;;28.92;16.35;;;;;;;6.18;95.32;96789.47;5052592;28;20463;-78
2021/09/23 04:22:48;;;;;;;27.48;15.85;;;;;;;6.11;95.76;96788.63;5052713;28;20045;-78
2021/09/23 04:25:14;;;;;;;28.30;16.88;;;;;;;6.10;95.74;96781.81;5053155;28;20519;-79
2021/09/23 04:27:42;;;;;;;28.02;16.70;;;;;;;6.02;95.63;96790.59;5051792;28;20087;-77
2021/09/23 04:30:10;;;;;;;;;;;;;;;6.01;95.65;96784.56;5053612;28;20567;-78
2021/09/23 04:32:35;;;;;;;32.53;16.52;;;;;;;6.02;95.74;96786.16;5052849;28;19921;-78
2021/09/23 04:35:01;;;;;;;29.85;17.13;;;;;;;5.95;95.55;96779.31;5052695;28;20037;-78
2021/09/23 04:37:27;;;;;;;31.05;17.85;;;;;;;6.01;96.08;96776.72;5052529;28;20128;-78
2021/09/23 04:39:52;;;;;;;26.77;15.73;;;;;;;6.03;95.66;96779.97;5053388;28;20071;-77
2021/09/23 04:42:18;;;;;;;29.77;16.65;;;;;;;6.03;96.56;96787.00;5053743;28;20456;-78
2021/09/23 04:44:44;;;;;;;28.17;17.15;;;;;;;5.99;96.00;96788.38;5056392;28;20515;-78
2021/09/23 04:47:13;;;;;;;32.42;16.45;;;;;;;6.04;95.66;96784.19;5055421;28;20068;-79
2021/09/23 04:49:39;;;;;;;28.58;16.42;;;;;;;6.07;95.57;96787.41;5063152;28;20063;-79
2021/09/23 04:52:05;;;;;;;33.17;17.27;;;;;;;5.98;95.73;96784.97;5061935;28;20048;-79
2021/09/23 04:54:31;;;;;;;31.83;16.10;;;;;;;5.96;95.53;96781.72;5038575;28;20382;-80
2021/09/23 04:56:58;;;;;;;28.13;16.02;;;;;;;5.89;96.08;96775.63;5037900;28;20094;-80
2021/09/23 04:59:26;;;;;;;32.63;16.50;;;;;;;5.86;96.28;96770.78;5054643;28;20045;-81
2021/09/23 05:01:51;;;;;;;29.50;16.48;;;;;;;5.87;96.50;96766.38;5062678;28;20052;-81
2021/09/23 05:04:18;;;;;;;32.50;17.30;;;;;;;5.87;96.47;96759.38;5060087;28;20041;-83
2021/09/23 05:06:46;;;;;;;34.50;18.58;;;;;;;5.94;96.24;96762.84;5043044;28;20139;-79
2021/09/23 05:09:12;;;;;;;;;;;;;;;5.90;96.36;96751.13;5058301;28;20087;-78
2021/09/23 05:11:37;;;;;;;31.00;18.13;;;;;;;5.77;96.19;96757.09;5055386;28;19921;-80
2021/09/23 05:14:03;;;;;;;36.13;19.20;;;;;;;5.71;96.61;96762.28;5055131;28;20045;-78
2021/09/23 05:16:29;;;;;;;34.50;19.02;;;;;;;5.70;96.93;96760.63;5053955;28;20040;-79
2021/09/23 05:18:54;;;;;;;35.65;18.67;;;;;;;5.76;97.26;96755.47;5037397;28;20091;-80
2021/09/23 05:21:21;;;;;;;35.60;18.33;;;;;;;5.83;97.31;96759.94;5055764;28;20520;-82
2021/09/23 05:23:47;;;;;;;34.63;18.02;;;;;;;5.78;97.25;96757.88;5039387;28;20045;-79
2021/09/23 05:26:15;;;;;;;36.85;18.58;;;;;;;5.85;97.74;96747.47;5057784;28;20159;-77
2021/09/23 05:28:41;;;;;;;29.45;16.83;;;;;;;5.84;97.11;96746.69;5058808;28;20049;-75
2021/09/23 05:31:07;;;;;;;36.53;19.58;;;;;;;5.86;97.95;96741.25;5055052;28;20047;-74
2021/09/23 05:33:32;;;;;;;40.88;19.48;;;;;;;5.90;97.81;96729.44;5036972;28;20048;-76
2021/09/23 05:35:58;;;;;;;32.08;18.20;;;;;;;6.01;97.42;96737.56;5036786;28;20037;-75
2021/09/23 05:38:25;;;;;;;33.50;18.02;;;;;;;6.15;95.97;96737.63;5055089;28;20048;-76
2021/09/23 05:40:51;;;;;;;34.50;18.65;;;;;;;6.24;95.30;96737.28;5055349;28;20420;-76
2021/09/23 05:43:17;;;;;;;36.22;18.83;;;;;;;6.22;94.67;96738.47;5036992;28;20060;-76
2021/09/23 05:45:42;;;;;;;37.10;19.98;;;;;;;6.22;95.31;96741.06;5054461;28;20403;-75
2021/09/23 05:48:08;;;;;;;34.63;19.42;;;;;;;6.18;94.92;96732.00;5054383;28;20545;-76
2021/09/23 05:50:33;;;;;;;34.20;19.30;;;;;;;6.15;95.73;96727.97;5055368;28;20041;-75
2021/09/23 05:52:59;;;;;;;38.97;20.15;;;;;;;6.19;96.24;96717.94;5054672;28;20056;-75
2021/09/23 05:55:26;;;;;;;34.25;19.13;;;;;;;6.24;96.25;96720.75;5053228;28;20041;-76
2021/09/23 05:57:52;;;;;;;34.83;18.48;;;;;;;6.34;95.18;96715.97;5036057;28;20036;-76
2021/09/23 06:00:18;;;;;;;31.83;19.30;;;;;;;6.38;95.27;96711.97;5062811;28;20055;-76
2021/09/23 06:02:45;;;;;;;33.33;18.25;;;;;;;6.44;95.68;96703.34;5069375;28;20041;-75
2021/09/23 06:05:12;;;;;;;32.70;18.63;;;;;;;6.64;94.87;96700.00;5054667;28;20044;-75
2021/09/23 06:07:41;;;;;;;29.73;15.70;;;;;;;6.69;94.75;96693.16;5054280;28;20049;-75
2021/09/23 06:10:10;;;;;;;28.88;14.75;;;;;;;6.85;93.62;96697.19;5053507;28;20068;-76
2021/09/23 06:12:37;;;;;;;30.00;15.88;;;;;;;6.90;93.15;96697.41;5054135;28;20045;-75
2021/09/23 06:15:05;;;;;;;32.97;15.80;;;;;;;6.88;93.36;96691.56;5052567;28;20467;-75
2021/09/23 06:17:30;;;;;;;34.50;16.93;;;;;;;6.89;93.75;96693.19;5053397;28;20132;-75
2021/09/23 06:19:56;;;;;;;30.00;16.70;;;;;;;6.99;93.76;96690.16;5053723;28;20124;-75
2021/09/23 06:22:21;;;;;;;32.35;18.00;;;;;;;7.05;92.57;96692.78;5035474;28;20079;-75
2021/09/23 06:24:47;;;;;;;32.35;17.75;;;;;;;7.10;93.28;96690.38;5053984;28;20037;-75
2021/09/23 06:27:12;;;;;;;33.47;18.23;;;;;;;7.24;93.29;96690.34;5053370;28;20076;-76
2021/09/23 06:29:41;;;;;;;30.67;18.25;;;;;;;7.35;92.49;96684.50;5053843;28;20052;-78
2021/09/23 06:32:07;;;;;;;36.75;19.33;;;;;;;7.48;92.81;96681.06;5053856;28;20040;-75
2021/09/23 06:34:35;;;;;;;34.30;19.35;;;;;;;7.50;92.37;96684.28;5070957;28;20059;-79
2021/09/23 06:37:00;;;;;;;34.00;19.50;;;;;;;7.65;92.60;96686.69;5073518;28;20127;-75
2021/09/23 06:39:26;;;;;;;34.60;19.60;;;;;;;7.73;92.21;96689.06;5072201;28;20047;-75
2021/09/23 06:41:55;;;;;;;33.13;18.48;;;;;;;7.86;91.76;96683.81;5073111;28;20218;-76
2021/09/23 06:44:21;;;;;;;37.63;18.90;;;;;;;8.04;90.53;96683.94;5073804;28;20033;-77
2021/09/23 06:46:49;;;;;;;29.45;17.63;;;;;;;8.11;90.76;96682.06;5073587;28;20411;-75
2021/09/23 06:49:14;;;;;;;32.65;18.83;;;;;;;8.24;90.34;96675.19;5073418;28;20524;-75
2021/09/23 06:51:40;;;;;;;36.97;21.65;;;;;;;8.19;90.28;96691.53;5073094;28;20075;-75
2021/09/23 06:54:09;;;;;;;40.55;22.52;;;;;;;8.32;89.59;96695.91;5072826;28;20404;-76
2021/09/23 06:56:37;;;;;;;33.28;20.02;;;;;;;8.35;89.04;96692.88;5072861;28;20040;-76
2021/09/23 06:59:05;;;;;;;36.58;20.88;;;;;;;8.42;89.36;96698.91;5094365;22;20053;-75
2021/09/23 07:01:33;;;;;;;35.90;19.92;;;;;;;8.55;89.06;96696.19;5075358;28;20044;-75
2021/09/23 07:04:00;;;;;;;37.63;20.45;;;;;;;8.66;88.42;96699.97;5076695;28;20032;-77
2021/09/23 07:06:28;;;;;;;36.20;21.13;;;;;;;8.81;88.39;96700.47;5077321;28;20049;-77
2021/09/23 07:08:54;;;;;;;;;;;;;;;8.92;87.66;96704.25;5062020;28;20060;-77
2021/09/23 07:11:19;;;;;;;33.85;17.25;;;;;;;9.07;87.01;96702.13;5059687;28;19927;-77
2021/09/23 07:13:45;;;;;;;40.15;19.23;;;;;;;9.22;86.91;96698.38;5059472;28;20052;-77
2021/09/23 07:16:11;;;;;;;34.08;19.17;;;;;;;9.31;86.16;96697.06;5078554;28;20048;-77
2021/09/23 07:18:36;;;;;;;36.03;19.58;;;;;;;9.44;85.62;96703.03;5091118;28;20036;-76
2021/09/23 07:21:05;;;;;;;30.67;18.42;;;;;;;9.55;85.11;96698.09;5083168;28;20052;-76
2021/09/23 07:23:31;;;;;;;29.55;16.48;;;;;;;9.61;85.76;96695.38;5078322;28;20064;-76
2021/09/23 07:25:56;;;;;;;26.20;14.60;;;;;;;9.79;85.33;96701.66;5080594;28;20489;-76
2021/09/23 07:28:25;;;;;;;25.83;13.88;;;;;;;9.83;85.34;96692.34;5057173;28;20568;-77
2021/09/23 07:30:53;;;;;;;25.95;13.00;;;;;;;9.93;84.26;96690.00;5076140;28;20416;-77
2021/09/23 07:33:19;;;;;;;23.50;12.85;;;;;;;9.98;84.07;96690.16;5075558;28;20045;-76
2021/09/23 07:35:44;;;;;;;21.75;12.40;;;;;;;9.98;83.62;96698.84;5076405;28;20063;-76
2021/09/23 07:38:11;;;;;;;27.05;13.55;;;;;;;10.12;83.83;96702.13;5075128;28;20131;-76
2021/09/23 07:40:37;;;;;;;21.70;11.95;;;;;;;10.06;83.71;96694.28;5076251;28;20213;-77
2021/09/23 07:43:03;;;;;;;24.60;11.63;;;;;;;10.30;83.12;96697.91;5059246;28;20587;-76
2021/09/23 07:45:29;;;;;;;23.10;11.38;;;;;;;10.24;83.99;96692.50;5081862;28;20392;-77
2021/09/23 07:47:55;;;;;;;20.45;11.18;;;;;;;10.27;83.93;96695.69;5081791;28;20041;-75
2021/09/23 07:50:20;;;;;;;19.50;10.95;;;;;;;10.23;84.46;96704.03;5075607;28;20045;-76
2021/09/23 07:52:46;;;;;;;22.75;11.43;;;;;;;10.24;84.96;96697.75;5078622;28;20161;-76
2021/09/23 07:55:13;;;;;;;20.30;10.20;;;;;;;10.43;84.33;96684.56;5076895;28;20045;-76
2021/09/23 07:57:39;;;;;;;19.83;10.75;;;;;;;10.58;84.12;96677.06;5057610;28;20059;-77
2021/09/23 08:00:06;;;;;;;22.17;10.65;;;;;;;10.61;83.09;96675.84;5056990;28;20048;-77
2021/09/23 08:02:32;;;;;;;22.50;10.75;;;;;;;10.72;84.09;96677.69;5075912;28;20040;-77
2021/09/23 08:04:57;;;;;;;17.80;10.32;;;;;;;10.93;82.32;96679.00;5073776;28;20048;-77
2021/09/23 08:07:23;;;;;;;19.10;10.73;;;;;;;11.04;83.46;96680.88;5075399;28;20060;-76
2021/09/23 08:09:49;;;;;;;18.58;10.48;;;;;;;11.02;82.80;96675.00;5083340;28;20381;-77
2021/09/23 08:12:16;;;;;;;21.90;11.15;;;;;;;11.04;82.29;96675.59;5062568;28;20060;-77
2021/09/23 08:14:42;;;;;;;18.30;10.68;;;;;;;11.11;81.97;96680.75;5079012;28;20040;-76
2021/09/23 08:17:10;;;;;;;19.17;10.27;;;;;;;11.26;82.09;96678.47;5083141;28;20044;-76
2021/09/23 08:19:39;;;;;;;17.73;9.73;;;;;;;11.46;81.98;96678.13;5084781;28;20033;-77
2021/09/23 08:22:08;;;;;;;21.02;10.85;;;;;;;11.65;81.32;96682.25;5079542;28;20059;-77
2021/09/23 08:24:37;;;;;;;20.83;10.73;;;;;;;11.83;79.27;96682.13;5060097;28;20420;-76
2021/09/23 08:27:03;;;;;;;20.95;10.20;;;;;;;11.93;78.90;96684.19;5079665;28;20040;-78
2021/09/23 08:29:30;;;;;;;20.98;11.02;;;;;;;11.99;78.36;96687.72;5075333;28;20047;-77
2021/09/23 08:31:56;;;;;;;19.02;11.00;;;;;;;12.10;77.65;96689.53;5076196;28;20083;-76
2021/09/23 08:34:22;;;;;;;22.80;10.73;;;;;;;12.21;78.83;96686.06;5076303;28;20036;-77
2021/09/23 08:36:47;;;;;;;21.13;11.60;;;;;;;12.43;77.74;96686.25;5075839;28;20044;-77
2021/09/23 08:39:13;;;;;;;20.85;10.70;;;;;;;12.66;76.37;96687.97;5075882;28;20104;-77
2021/09/23 08:41:39;;;;;;;19.48;11.32;;;;;;;12.85;74.72;96688.56;5075525;28;20412;-76
2021/09/23 08:44:06;;;;;;;24.73;10.73;;;;;;;12.89;74.67;96687.03;5057305;28;20041;-77
2021/09/23 08:46:36;;;;;;;23.63;11.77;;;;;;;12.93;75.12;96697.94;5076830;28;20047;-76
2021/09/23 08:49:03;;;;;;;24.92;12.75;;;;;;;13.05;75.36;96699.47;5074879;28;20148;-76
2021/09/23 08:51:29;;;;;;;21.25;11.02;;;;;;;13.20;73.87;96696.28;5095517;28;20028;-74
2021/09/23 08:53:55;;;;;;;22.67;12.00;;;;;;;13.32;73.12;96697.03;5086840;28;20053;-76
2021/09/23 08:56:23;;;;;;;21.92;11.50;;;;;;;13.28;73.06;96701.19;5077239;28;20542;-76
2021/09/23 08:58:49;;;;;;;23.60;11.82;;;;;;;13.41;72.34;96691.34;5076765;28;20106;-76
2021/09/23 09:01:18;;;;;;;26.15;11.65;;;;;;;13.56;72.48;96687.09;5079281;28;20052;-77
2021/09/23 09:03:46;;;;;;;26.63;12.48;;;;;;;13.59;71.87;96691.06;5061325;28;20040;-77
2021/09/23 09:06:13;;;;;;;27.70;13.68;;;;;;;13.58;71.96;96686.84;5061418;28;20071;-77
2021/09/23 09:08:41;;;;;;;26.92;13.77;;;;;;;13.63;72.01;96682.41;5078622;28;20069;-75
2021/09/23 09:11:10;;;;;;;23.77;12.32;;;;;;;13.82;71.85;96669.72;5062370;28;20044;-76
2021/09/23 09:13:37;;;;;;;25.63;12.88;;;;;;;14.22;71.77;96668.63;5081500;28;20102;-77
2021/09/23 09:16:08;;;;;;;20.73;11.48;;;;;;;14.31;70.85;96667.13;5084843;28;20087;-76
2021/09/23 09:18:35;;;;;;;20.73;11.55;;;;;;;14.33;70.29;96665.03;5066710;28;20059;-76
2021/09/23 09:21:04;;;;;;;17.83;9.95;;;;;;;14.64;71.36;96657.47;5079788;28;20123;-76
2021/09/23 09:23:37;;;;;;;18.58;9.88;;;;;;;14.56;70.73;96663.19;5062299;28;20098;-76
2021/09/23 09:26:05;;;;;;;18.95;10.50;;;;;;;14.61;70.55;96671.19;5079317;28;20135;-77
2021/09/23 09:28:31;;;;;;;20.15;9.93;;;;;;;14.55;70.67;96672.19;5060391;28;20123;-76
2021/09/23 09:31:01;;;;;;;18.45;9.90;;;;;;;14.57;70.16;96670.06;5078285;28;20032;-76
2021/09/23 09:33:35;;;;;;;17.75;9.70;;;;;;;14.88;70.02;96669.31;5079240;28;20533;-77
2021/09/23 09:36:03;;;;;;;18.25;9.10;;;;;;;15.05;68.95;96661.25;5078750;28;20441;-77
2021/09/23 09:38:28;;;;;;;17.98;8.95;;;;;;;15.20;68.90;96657.94;5079119;28;20052;-76
2021/09/23 09:41:02;;;;;;;18.15;9.60;;;;;;;15.55;67.99;96656.56;5078866;28;20117;-77
2021/09/23 09:43:31;;;;;;;18.85;9.85;;;;;;;15.57;67.09;96663.22;5080023;28;20043;-77
2021/09/23 09:45:57;;;;;;;20.52;10.40;;;;;;;15.61;66.64;96668.81;5061861;28;20045;-77
2021/09/23 09:48:29;;;;;;;19.02;9.93;;;;;;;15.65;66.46;96659.31;5080042;28;20047;-77
2021/09/23 09:50:59;;;;;;;22.52;10.98;;;;;;;15.91;66.64;96654.94;5062127;28;20048;-77
2021/09/23 09:53:28;;;;;;;20.67;11.18;;;;;;;15.69;66.70;96655.09;5079179;28;20527;-77
2021/09/23 09:55:55;;;;;;;41.03;17.65;;;;;;;15.64;66.91;96649.75;5078412;28;20041;-77
2021/09/23 09:58:23;;;;;;;40.03;18.65;;;;;;;15.93;67.00;96658.16;5077324;28;20500;-76
2021/09/23 10:00:48;;;;;;;27.35;13.98;;;;;;;16.24;66.68;96651.09;5060346;28;20075;-76
2021/09/23 10:03:15;;;;;;;23.20;11.27;;;;;;;16.28;65.29;96641.53;5060548;28;20045;-77
2021/09/23 10:05:43;;;;;;;19.48;11.05;;;;;;;16.58;64.91;96638.19;5078718;28;20036;-77
2021/09/23 10:08:09;;;;;;;14.45;7.70;;;;;;;16.78;63.09;96642.72;5077138;28;20111;-77
2021/09/23 10:10:38;;;;;;;15.52;7.65;;;;;;;16.85;61.41;96639.84;5078607;28;20132;-76
2021/09/23 10:13:04;;;;;;;17.25;7.32;;;;;;;16.87;61.08;96630.53;5060502;28;20040;-76
2021/09/23 10:15:30;;;;;;;14.13;7.07;;;;;;;16.98;61.69;96623.34;5081513;28;20048;-77
2021/09/23 10:18:00;;;;;;;13.65;6.07;;;;;;;17.09;61.33;96629.47;5084500;28;20044;-77
2021/09/23 10:20:26;;;;;;;11.80;5.68;;;;;;;17.12;60.54;96626.28;5096237;28;20024;-78
2021/09/23 10:22:53;;;;;;;13.80;5.93;;;;;;;17.13;59.69;96630.53;5085279;28;20064;-77
2021/09/23 10:25:22;;;;;;;14.70;6.13;;;;;;;17.19;58.50;96635.56;5077898;28;20068;-76
2021/09/23 10:28:23;;;;;;;11.38;5.68;;;;;;;17.18;58.69;96619.91;5076968;28;20083;-77
2021/09/23 10:30:43;;;;;;;11.90;5.55;;;;;;;17.12;56.93;96616.44;5075692;28;20041;-77
2021/09/23 10:33:09;;;;;;;12.45;5.88;;;;;;;17.21;57.14;96614.03;5060445;28;20041;-77
2021/09/23 10:35:36;;;;;;;14.98;5.90;;;;;;;17.30;58.07;96609.78;5079112;28;20705;-77
2021/09/23 10:38:04;;;;;;;12.35;5.93;;;;;;;17.32;58.14;96607.63;5077660;28;20044;-77
2021/09/23 10:40:32;;;;;;;10.98;5.78;;;;;;;17.61;57.50;96601.75;5078358;28;20044;-75
2021/09/23 10:43:06;;;;;;;14.27;7.05;;;;;;;17.26;58.08;96600.72;5078587;28;20040;-78
2021/09/23 10:45:34;;;;;;;13.98;6.30;;;;;;;17.41;58.32;96598.03;5058833;28;20044;-76
2021/09/23 10:48:00;;;;;;;11.55;4.88;;;;;;;17.50;57.72;96593.78;5078622;28;20050;-77
2021/09/23 10:50:29;;;;;;;12.63;5.50;;;;;;;17.68;57.19;96588.94;5079822;28;20455;-76
2021/09/23 10:52:55;;;;;;;10.95;5.13;;;;;;;17.76;56.37;96596.41;5078487;28;20052;-77
2021/09/23 10:55:23;;;;;;;12.05;5.90;;;;;;;17.82;56.76;96600.63;5078551;28;20070;-77
2021/09/23 10:57:49;;;;;;;11.63;6.03;;;;;;;17.90;57.13;96592.06;5065573;28;20044;-76
2021/09/23 11:00:23;;;;;;;12.52;6.18;;;;;;;18.12;56.85;96590.91;5094242;28;20041;-77
2021/09/23 11:02:52;;;;;;;13.18;6.45;;;;;;;18.14;56.96;96580.78;5080577;28;20448;-77
2021/09/23 11:05:19;;;;;;;12.02;6.38;;;;;;;17.99;56.73;96574.47;5078949;28;20075;-76
2021/09/23 11:07:46;;;;;;;17.27;6.90;;;;;;;18.18;56.63;96576.50;5079524;28;20040;-77
2021/09/23 11:10:15;;;;;;;37.35;15.95;;;;;;;18.29;57.35;96578.03;5079367;28;20516;-76
2021/09/23 11:12:43;;;;;;;17.00;9.07;;;;;;;18.14;57.69;96575.47;5077982;28;20041;-77
2021/09/23 11:15:12;;;;;;;15.07;7.07;;;;;;;18.30;57.62;96574.31;5063754;28;20065;-77
2021/09/23 11:17:40;;;;;;;16.08;8.45;;;;;;;18.38;57.79;96572.91;5093509;28;20035;-77
2021/09/23 11:20:09;;;;;;;13.77;7.40;;;;;;;18.33;57.98;96568.41;5095089;28;20120;-77
2021/09/23 11:22:37;;;;;;;14.15;6.82;;;;;;;18.33;58.23;96565.75;5091990;28;20495;-77
2021/09/23 11:25:08;;;;;;;13.95;7.45;;;;;;;18.55;57.83;96568.78;5069449;28;20044;-77
2021/09/23 11:27:34;;;;;;;13.00;7.40;;;;;;;18.42;57.31;96572.09;5076132;28;20041;-76